Time;durP1;ratioP1;P1;durP2;ratioP2;P2;SDS_P1;SDS_P2;PMS_P1;PMS_P2;Temp;Humidity;BMP_temperature;BMP_pressure;BME280_temperature;BME280_humidity;BME280_pressure;Samples;Min_cycle;Max_cycle;Signal;HPM_P1;HPM_P2
2022/10/05 00:00:38;;;;;;;;;;;20.80;67.00;;;;;;5020736;28;832;-70
2022/10/05 00:03:08;;;;;;;;;;;20.80;67.00;;;;;;5021729;28;912;-70
2022/10/05 00:05:33;;;;;;;;;;;20.80;67.00;;;;;;5018611;28;1376;-70
2022/10/05 00:08:04;;;;;;;;;;;20.80;67.00;;;;;;5017831;28;1458;-70
2022/10/05 00:10:30;;;;;;;;;;;20.80;67.00;;;;;;5017326;28;1899;-70
2022/10/05 00:12:55;;;;;;;;;;;20.80;67.10;;;;;;5016552;28;804;-70
2022/10/05 00:15:21;;;;;;;;;;;20.80;67.10;;;;;;5021890;28;843;-70
2022/10/05 00:17:46;;;;;;;;;;;20.80;67.10;;;;;;5016852;28;1261;-70
2022/10/05 00:20:15;;;;;;;;;;;20.80;67.20;;;;;;5017431;28;886;-70
2022/10/05 00:22:41;;;;;;;;;;;20.80;67.10;;;;;;5020251;28;793;-70
2022/10/05 00:25:10;;;;;;;;;;;20.80;68.00;;;;;;5017942;28;936;-70
2022/10/05 00:27:37;;;;;;;;;;;20.80;67.20;;;;;;5018848;28;1303;-70
2022/10/05 00:30:29;;;;;;;;;;;20.80;67.20;;;;;;5018491;28;1895;-70
2022/10/05 00:32:55;;;;;;;;;;;20.80;67.20;;;;;;5019292;28;1286;-70
2022/10/05 00:35:20;;;;;;;;;;;20.80;67.20;;;;;;5024132;28;887;-71
2022/10/05 00:37:46;;;;;;;;;;;20.80;67.20;;;;;;5021300;28;1275;-70
2022/10/05 00:40:47;;;;;;;;;;;20.80;67.20;;;;;;5021056;28;916;-70
2022/10/05 00:43:30;;;;;;;;;;;20.80;67.30;;;;;;4963306;28;1000;-70
2022/10/05 00:45:59;;;;;;;;;;;20.80;67.30;;;;;;5014827;28;1288;-70
2022/10/05 00:48:44;;;;;;;;;;;20.80;67.30;;;;;;5004608;28;1317;-70
2022/10/05 00:51:19;;;;;;;;;;;20.80;67.30;;;;;;4996283;28;1907;-70
2022/10/05 00:54:03;;;;;;;;;;;20.80;67.30;;;;;;5017144;28;1262;-70
2022/10/05 00:56:31;;;;;;;;;;;20.80;67.30;;;;;;5017668;28;1285;-70
2022/10/05 00:59:06;;;;;;;;;;;20.80;67.40;;;;;;5019509;28;974;-70
2022/10/05 01:01:35;;;;;;;;;;;20.80;67.40;;;;;;5023209;28;899;-71
2022/10/05 01:04:10;;;;;;;;;;;20.80;67.40;;;;;;5019428;28;1147;-71
2022/10/05 01:06:54;;;;;;;;;;;20.80;67.40;;;;;;5017588;28;1292;-71
2022/10/05 01:09:22;;;;;;;;;;;20.80;67.40;;;;;;5015157;28;936;-71
2022/10/05 01:11:50;;;;;;;;;;;20.80;67.40;;;;;;5017805;28;1981;-71
2022/10/05 01:14:20;;;;;;;;;;;20.70;67.40;;;;;;5018052;28;813;-71
2022/10/05 01:16:49;;;;;;;;;;;20.70;67.40;;;;;;5010289;28;1576;-71
2022/10/05 01:19:26;;;;;;;;;;;20.70;67.40;;;;;;5020679;28;884;-71
2022/10/05 01:21:56;;;;;;;;;;;20.70;67.40;;;;;;5015837;28;1023;-71
2022/10/05 01:24:48;;;;;;;;;;;20.70;67.50;;;;;;5021349;28;920;-71
2022/10/05 01:27:31;;;;;;;;;;;20.70;67.50;;;;;;4996397;28;1332;-71
2022/10/05 01:29:57;;;;;;;;;;;20.70;67.50;;;;;;5020849;28;1902;-71
2022/10/05 01:32:40;;;;;;;;;;;20.70;67.50;;;;;;5019428;28;1367;-71
2022/10/05 01:35:28;;;;;;;;;;;20.70;67.50;;;;;;5019962;28;892;-71
2022/10/05 01:37:56;;;;;;;;;;;20.70;67.60;;;;;;5022765;28;1285;-71
2022/10/05 01:40:37;;;;;;;;;;;20.70;67.60;;;;;;5021927;28;923;-71
2022/10/05 01:43:06;;;;;;;;;;;20.70;67.60;;;;;;5007851;28;1271;-71
2022/10/05 01:45:50;;;;;;;;;;;20.70;67.60;;;;;;5020152;28;903;-71
2022/10/05 01:48:18;;;;;;;;;;;20.70;67.60;;;;;;5019539;28;824;-71
2022/10/05 01:50:56;;;;;;;;;;;20.70;67.60;;;;;;5018747;28;1942;-71
2022/10/05 01:53:51;;;;;;;;;;;20.70;67.60;;;;;;5019613;28;906;-71
2022/10/05 01:56:29;;;;;;;;;;;20.70;67.60;;;;;;5012213;28;1309;-71
2022/10/05 01:59:00;;;;;;;;;;;20.70;67.60;;;;;;5021808;28;927;-71
2022/10/05 02:01:49;;;;;;;;;;;20.70;67.70;;;;;;5022866;28;816;-71
2022/10/05 02:04:33;;;;;;;;;;;20.70;67.70;;;;;;5013323;28;1596;-71
2022/10/05 02:06:59;;;;;;;;;;;20.70;67.70;;;;;;5020332;28;1255;-71
2022/10/05 02:09:25;;;;;;;;;;;20.70;67.70;;;;;;5021999;28;926;-71
2022/10/05 02:11:56;;;;;;;;;;;20.70;67.70;;;;;;5019337;28;1914;-71
2022/10/05 02:14:22;;;;;;;;;;;20.70;67.70;;;;;;5019987;28;967;-71
2022/10/05 02:16:48;;;;;;;;;;;20.70;67.80;;;;;;5019779;28;1316;-71
2022/10/05 02:19:13;;;;;;;;;;;20.70;67.80;;;;;;5025289;28;915;-71
2022/10/05 02:21:39;;;;;;;;;;;20.70;67.80;;;;;;5023280;28;861;-71
2022/10/05 02:24:06;;;;;;;;;;;20.70;67.80;;;;;;5021434;28;1026;-71
2022/10/05 02:26:31;;;;;;;;;;;20.70;67.80;;;;;;5022404;28;1276;-71
2022/10/05 02:28:57;;;;;;;;;;;20.70;67.80;;;;;;5022483;28;920;-71
2022/10/05 02:31:25;;;;;;;;;;;20.70;67.80;;;;;;5023987;28;1899;-71
2022/10/05 02:33:50;;;;;;;;;;;20.70;67.80;;;;;;5018699;28;930;-71
2022/10/05 02:36:16;;;;;;;;;;;20.70;67.80;;;;;;5020852;28;1229;-71
2022/10/05 02:39:14;;;;;;;;;;;20.70;67.90;;;;;;5023199;28;859;-71
2022/10/05 02:41:43;;;;;;;;;;;20.70;67.90;;;;;;4982679;28;1364;-71
2022/10/05 02:44:20;;;;;;;;;;;20.70;67.90;;;;;;5027640;28;812;-71
2022/10/05 02:46:49;;;;;;;;;;;20.70;67.90;;;;;;5016612;28;1237;-71
2022/10/05 02:49:24;;;;;;;;;;;20.70;68.00;;;;;;5022817;28;950;-71
2022/10/05 02:52:09;;;;;;;;;;;20.70;67.90;;;;;;5019359;28;1910;-71
2022/10/05 02:54:35;;;;;;;;;;;20.70;68.00;;;;;;5018447;28;1100;-71
2022/10/05 02:57:19;;;;;;;;;;;20.70;68.00;;;;;;5020586;28;1265;-71
2022/10/05 02:59:46;;;;;;;;;;;20.70;68.10;;;;;;5020155;28;1188;-71
2022/10/05 03:02:44;;;;;;;;;;;20.70;68.00;;;;;;5020221;28;788;-71
2022/10/05 03:05:47;;;;;;;;;;;20.70;68.00;;;;;;4929994;29;1134;-70
2022/10/05 03:08:21;;;;;;;;;;;20.70;68.00;;;;;;4964154;28;1294;-70
2022/10/05 03:11:01;;;;;;;;;;;20.70;68.00;;;;;;5025344;28;1949;-70
2022/10/05 03:13:26;;;;;;;;;;;20.70;68.10;;;;;;5023486;28;812;-70
2022/10/05 03:15:59;;;;;;;;;;;20.70;68.00;;;;;;5021428;28;1232;-70
2022/10/05 03:18:27;;;;;;;;;;;20.70;68.80;;;;;;5016338;28;971;-70
2022/10/05 03:20:52;;;;;;;;;;;20.60;68.00;;;;;;5018669;28;864;-70
2022/10/05 03:23:29;;;;;;;;;;;20.70;68.10;;;;;;5019727;28;971;-70
2022/10/05 03:26:01;;;;;;;;;;;20.60;68.00;;;;;;5017507;28;1261;-70
2022/10/05 03:28:31;;;;;;;;;;;20.60;68.10;;;;;;5020611;28;1305;-70
2022/10/05 03:30:59;;;;;;;;;;;20.60;68.10;;;;;;5021907;28;1952;-70
2022/10/05 03:33:24;;;;;;;;;;;20.60;68.10;;;;;;5020978;28;1632;-70
2022/10/05 03:36:05;;;;;;;;;;;20.70;68.10;;;;;;5020785;28;1033;-70
2022/10/05 03:38:35;;;;;;;;;;;20.70;68.20;;;;;;5022091;28;824;-70
2022/10/05 03:41:10;;;;;;;;;;;20.60;68.10;;;;;;5017366;28;1530;-70
2022/10/05 03:43:39;;;;;;;;;;;20.60;68.10;;;;;;5016714;28;1121;-70
2022/10/05 03:46:23;;;;;;;;;;;20.60;68.10;;;;;;5021431;28;1237;-70
2022/10/05 03:48:51;;;;;;;;;;;20.60;68.90;;;;;;5014120;28;824;-70
2022/10/05 03:51:19;;;;;;;;;;;20.60;68.10;;;;;;5012957;28;1883;-70
2022/10/05 03:53:55;;;;;;;;;;;20.60;68.20;;;;;;5014374;28;1097;-70
2022/10/05 03:56:50;;;;;;;;;;;20.60;68.20;;;;;;5012950;28;1198;-70
2022/10/05 03:59:17;;;;;;;;;;;20.60;68.20;;;;;;5005209;28;1161;-71
2022/10/05 04:02:03;;;;;;;;;;;20.60;68.20;;;;;;5013993;28;860;-71
2022/10/05 04:04:39;;;;;;;;;;;20.60;68.20;;;;;;5018094;28;1224;-71
2022/10/05 04:07:05;;;;;;;;;;;20.60;68.20;;;;;;5015897;28;1232;-71
2022/10/05 04:09:33;;;;;;;;;;;20.60;68.20;;;;;;5020596;28;840;-70
2022/10/05 04:12:17;;;;;;;;;;;20.60;68.20;;;;;;5011597;28;1906;-71
2022/10/05 04:15:02;;;;;;;;;;;20.60;68.20;;;;;;5016641;28;998;-71
2022/10/05 04:17:38;;;;;;;;;;;20.60;68.30;;;;;;5021073;28;1261;-72
2022/10/05 04:20:23;;;;;;;;;;;20.60;68.30;;;;;;5020957;28;1046;-71
2022/10/05 04:22:54;;;;;;;;;;;20.60;68.30;;;;;;5018717;28;1510;-72
2022/10/05 04:25:21;;;;;;;;;;;20.60;68.30;;;;;;5019688;28;812;-72
2022/10/05 04:27:51;;;;;;;;;;;20.60;68.30;;;;;;5021775;28;1389;-71
2022/10/05 04:30:17;;;;;;;;;;;20.60;68.30;;;;;;5024256;28;1906;-69
2022/10/05 04:32:43;;;;;;;;;;;20.60;68.30;;;;;;5022970;28;2169;-70
2022/10/05 04:35:15;;;;;;;;;;;20.60;68.30;;;;;;5022523;28;1269;-69
2022/10/05 04:37:57;;;;;;;;;;;20.60;68.30;;;;;;5012062;28;4325;-70
2022/10/05 04:40:29;;;;;;;;;;;20.60;68.30;;;;;;5014304;28;3940;-70
2022/10/05 04:42:54;;;;;;;;;;;20.60;68.40;;;;;;5018169;28;4533;-69
2022/10/05 04:45:26;;;;;;;;;;;20.70;68.40;;;;;;5017310;28;876;-70
2022/10/05 04:48:30;;;;;;;;;;;20.70;68.40;;;;;;5020262;28;1277;-70
2022/10/05 04:51:21;;;;;;;;;;;20.80;68.30;;;;;;4981162;28;1902;-69
2022/10/05 04:53:51;;;;;;;;;;;20.90;67.90;;;;;;4973788;28;1125;-68
2022/10/05 04:56:27;;;;;;;;;;;21.10;67.60;;;;;;5000636;28;1225;-69
2022/10/05 04:59:13;;;;;;;;;;;21.20;67.20;;;;;;5018560;28;861;-69
2022/10/05 05:02:02;;;;;;;;;;;21.30;66.90;;;;;;4987354;28;1073;-70
2022/10/05 05:04:39;;;;;;;;;;;21.40;66.50;;;;;;5015978;28;852;-70
2022/10/05 05:07:09;;;;;;;;;;;21.50;66.10;;;;;;5015327;28;1245;-70
2022/10/05 05:09:41;;;;;;;;;;;21.70;65.90;;;;;;5018176;28;824;-70
2022/10/05 05:12:14;;;;;;;;;;;21.80;65.60;;;;;;5017558;28;1910;-70
2022/10/05 05:14:39;;;;;;;;;;;21.80;65.20;;;;;;5018804;28;1014;-70
2022/10/05 05:17:24;;;;;;;;;;;21.90;65.00;;;;;;5018666;28;1245;-70
2022/10/05 05:19:52;;;;;;;;;;;22.00;64.80;;;;;;5020650;28;1671;-70
2022/10/05 05:22:36;;;;;;;;;;;22.10;64.60;;;;;;5022263;28;807;-70
2022/10/05 05:25:16;;;;;;;;;;;22.20;64.30;;;;;;5018561;28;864;-71
2022/10/05 05:27:54;;;;;;;;;;;22.20;64.10;;;;;;5024412;28;1284;-70
2022/10/05 05:30:46;;;;;;;;;;;22.30;63.90;;;;;;5016678;28;2157;-70
2022/10/05 05:33:21;;;;;;;;;;;22.30;63.70;;;;;;4992581;28;1407;-70
2022/10/05 05:36:10;;;;;;;;;;;22.40;63.60;;;;;;5015765;28;844;-70
2022/10/05 05:38:40;;;;;;;;;;;22.50;63.40;;;;;;5007183;28;1154;-70
2022/10/05 05:41:06;;;;;;;;;;;22.50;63.20;;;;;;5023197;28;832;-70
2022/10/05 05:43:34;;;;;;;;;;;22.60;63.10;;;;;;5021144;28;859;-70
2022/10/05 05:46:00;;;;;;;;;;;22.60;63.00;;;;;;5020058;28;1253;-70
2022/10/05 05:48:25;;;;;;;;;;;22.60;62.90;;;;;;5023684;28;975;-70
2022/10/05 05:50:58;;;;;;;;;;;22.70;62.90;;;;;;5018518;28;1898;-70
2022/10/05 05:53:26;;;;;;;;;;;22.70;62.70;;;;;;5019144;28;899;-69
2022/10/05 05:55:58;;;;;;;;;;;22.70;62.60;;;;;;5008222;28;5502;-70
2022/10/05 05:58:28;;;;;;;;;;;22.80;62.50;;;;;;5017353;28;4698;-71
2022/10/05 06:01:08;;;;;;;;;;;22.80;62.40;;;;;;5022643;28;860;-71
2022/10/05 06:03:42;;;;;;;;;;;22.80;62.40;;;;;;5013438;28;894;-71
2022/10/05 06:06:09;;;;;;;;;;;22.80;62.30;;;;;;5018166;28;1508;-69
2022/10/05 06:08:35;;;;;;;;;;;22.90;62.30;;;;;;5018657;28;1168;-69
2022/10/05 06:11:05;;;;;;;;;;;22.90;62.20;;;;;;5020374;28;1977;-69
2022/10/05 06:13:34;;;;;;;;;;;22.90;62.10;;;;;;5021349;28;1308;-69
2022/10/05 06:16:03;;;;;;;;;;;22.90;62.10;;;;;;5024327;28;1374;-68
2022/10/05 06:18:29;;;;;;;;;;;22.90;62.10;;;;;;5019716;28;1542;-68
2022/10/05 06:20:57;;;;;;;;;;;22.90;62.00;;;;;;5011024;28;1414;-68
2022/10/05 06:23:24;;;;;;;;;;;23.00;62.00;;;;;;5018154;28;817;-69
2022/10/05 06:25:57;;;;;;;;;;;23.00;62.00;;;;;;5020257;28;834;-71
2022/10/05 06:28:23;;;;;;;;;;;23.00;62.70;;;;;;5020338;28;1347;-72
2022/10/05 06:30:51;;;;;;;;;;;23.00;62.00;;;;;;5020791;28;1910;-72
2022/10/05 06:33:35;;;;;;;;;;;23.00;62.00;;;;;;5021408;28;1379;-72
2022/10/05 06:36:19;;;;;;;;;;;23.10;62.00;;;;;;5022034;28;1272;-70
2022/10/05 06:39:03;;;;;;;;;;;23.00;61.90;;;;;;5020403;28;879;-70
2022/10/05 06:41:35;;;;;;;;;;;23.10;61.90;;;;;;5021482;28;1006;-72
2022/10/05 06:44:08;;;;;;;;;;;23.10;61.90;;;;;;5020041;28;1069;-73
2022/10/05 06:46:52;;;;;;;;;;;23.10;61.90;;;;;;5013016;28;4436;-71
2022/10/05 06:49:24;;;;;;;;;;;23.10;61.90;;;;;;5023887;28;948;-71
2022/10/05 06:51:52;;;;;;;;;;;23.10;61.90;;;;;;5023043;28;1906;-71
2022/10/05 06:54:40;;;;;;;;;;;23.10;61.90;;;;;;5021150;28;817;-70
2022/10/05 06:57:14;;;;;;;;;;;23.10;61.90;;;;;;5008402;28;1340;-71
2022/10/05 06:59:59;;;;;;;;;;;23.10;62.00;;;;;;5018022;28;1090;-71
2022/10/05 07:02:29;;;;;;;;;;;23.10;61.90;;;;;;5022356;28;1830;-71
2022/10/05 07:05:13;;;;;;;;;;;23.10;61.90;;;;;;5017609;28;1781;-71
2022/10/05 07:07:39;;;;;;;;;;;23.10;61.90;;;;;;5023023;28;1287;-70
2022/10/05 07:10:07;;;;;;;;;;;23.10;62.00;;;;;;5023053;28;1906;-71
2022/10/05 07:12:42;;;;;;;;;;;23.20;62.10;;;;;;5022410;28;1374;-71
2022/10/05 07:15:20;;;;;;;;;;;23.20;62.20;;;;;;5022963;28;1605;-71
2022/10/05 07:17:52;;;;;;;;;;;23.20;62.20;;;;;;5020624;28;1707;-71
2022/10/05 07:20:20;;;;;;;;;;;23.20;62.30;;;;;;5021619;28;1349;-71
2022/10/05 07:22:46;;;;;;;;;;;23.20;62.40;;;;;;5022957;28;1608;-70
2022/10/05 07:25:16;;;;;;;;;;;23.20;62.40;;;;;;5022009;28;1848;-72
2022/10/05 07:27:50;;;;;;;;;;;23.30;62.50;;;;;;5020887;28;1415;-71
2022/10/05 07:30:15;;;;;;;;;;;23.30;62.70;;;;;;5031133;28;1949;-71
2022/10/05 07:32:48;;;;;;;;;;;23.30;62.70;;;;;;5022412;28;1331;-71
2022/10/05 07:38:22;;;;;;;;;;;23.30;62.80;;;;;;5021317;28;728;-72
2022/10/05 07:40:48;;;;;;;;;;;23.30;62.80;;;;;;5029047;28;854;-71
2022/10/05 07:43:29;;;;;;;;;;;23.30;62.80;;;;;;5022671;28;1077;-72
2022/10/05 07:45:54;;;;;;;;;;;23.30;62.90;;;;;;5023505;28;1355;-71
2022/10/05 07:48:20;;;;;;;;;;;23.30;63.00;;;;;;5020863;28;922;-71
2022/10/05 07:50:46;;;;;;;;;;;23.30;63.10;;;;;;5017067;28;1938;-71
2022/10/05 07:53:11;;;;;;;;;;;23.30;63.20;;;;;;5020404;28;907;-71
2022/10/05 07:55:42;;;;;;;;;;;23.30;63.30;;;;;;5020588;28;920;-72
2022/10/05 07:58:30;;;;;;;;;;;23.30;63.30;;;;;;5018462;28;1281;-71
2022/10/05 08:00:59;;;;;;;;;;;23.30;63.40;;;;;;5021685;28;895;-71
2022/10/05 08:03:30;;;;;;;;;;;23.30;63.40;;;;;;5020329;28;951;-71
2022/10/05 08:05:56;;;;;;;;;;;23.30;63.50;;;;;;5018983;28;1334;-71
2022/10/05 08:08:24;;;;;;;;;;;23.30;63.60;;;;;;5017468;28;2203;-71
2022/10/05 08:10:49;;;;;;;;;;;23.30;63.70;;;;;;5016494;28;1926;-71
2022/10/05 08:13:22;;;;;;;;;;;23.30;63.70;;;;;;5020935;28;968;-72
2022/10/05 08:15:49;;;;;;;;;;;23.30;63.70;;;;;;5017860;28;942;-72
2022/10/05 08:18:17;;;;;;;;;;;23.30;63.80;;;;;;5013260;28;1294;-72
2022/10/05 08:20:50;;;;;;;;;;;23.30;64.10;;;;;;5017012;28;1047;-71
2022/10/05 08:23:16;;;;;;;;;;;23.30;64.50;;;;;;5015672;28;816;-72
2022/10/05 08:25:50;;;;;;;;;;;23.30;64.60;;;;;;5022892;28;792;-71
2022/10/05 08:28:17;;;;;;;;;;;23.20;64.60;;;;;;5015659;28;1308;-71
2022/10/05 08:31:01;;;;;;;;;;;23.20;64.80;;;;;;5016995;28;2009;-72
2022/10/05 08:33:28;;;;;;;;;;;23.20;64.90;;;;;;5026097;28;1326;-71
2022/10/05 08:36:02;;;;;;;;;;;23.20;65.00;;;;;;5017101;28;1511;-70
2022/10/05 08:38:28;;;;;;;;;;;23.20;65.00;;;;;;5009841;28;1173;-71
2022/10/05 08:41:02;;;;;;;;;;;23.20;65.00;;;;;;5019615;28;868;-71
2022/10/05 08:43:47;;;;;;;;;;;23.10;65.00;;;;;;5015526;28;824;-71
2022/10/05 08:46:30;;;;;;;;;;;23.20;65.10;;;;;;5025369;28;1296;-71
2022/10/05 08:49:04;;;;;;;;;;;23.10;65.20;;;;;;5018197;28;1200;-71
2022/10/05 08:51:32;;;;;;;;;;;23.10;65.40;;;;;;5018420;28;1906;-71
2022/10/05 08:54:01;;;;;;;;;;;23.10;65.50;;;;;;5016253;28;943;-71
2022/10/05 08:56:34;;;;;;;;;;;23.10;65.60;;;;;;5017007;28;1366;-71
2022/10/05 08:59:09;;;;;;;;;;;23.00;65.60;;;;;;5019379;28;1800;-71
2022/10/05 09:01:34;;;;;;;;;;;23.00;65.80;;;;;;5018004;28;887;-71
2022/10/05 09:04:03;;;;;;;;;;;23.00;66.00;;;;;;5018821;28;892;-71
2022/10/05 09:06:46;;;;;;;;;;;23.00;66.10;;;;;;5020211;28;1221;-71
2022/10/05 09:09:30;;;;;;;;;;;23.00;66.20;;;;;;5019077;28;880;-71
2022/10/05 09:12:00;;;;;;;;;;;22.90;66.40;;;;;;5015509;28;1922;-71
2022/10/05 09:14:27;;;;;;;;;;;22.90;66.60;;;;;;5016372;28;903;-71
2022/10/05 09:16:58;;;;;;;;;;;22.90;66.80;;;;;;5020154;28;1301;-71
2022/10/05 09:19:29;;;;;;;;;;;22.90;67.00;;;;;;5009665;28;1355;-71
2022/10/05 09:21:56;;;;;;;;;;;22.80;68.00;;;;;;5019192;28;1018;-71
2022/10/05 09:24:24;;;;;;;;;;;22.80;67.70;;;;;;5019021;28;951;-71
2022/10/05 09:26:56;;;;;;;;;;;22.80;67.60;;;;;;5017375;28;1233;-71
2022/10/05 09:29:22;;;;;;;;;;;22.80;67.70;;;;;;5006073;28;1199;-71
2022/10/05 09:32:04;;;;;;;;;;;22.80;67.70;;;;;;5021554;28;2042;-71
2022/10/05 09:34:54;;;;;;;;;;;22.80;68.10;;;;;;5013471;28;939;-71
2022/10/05 09:37:37;;;;;;;;;;;22.70;68.30;;;;;;4976192;28;1269;-71
2022/10/05 09:40:11;;;;;;;;;;;22.70;68.30;;;;;;5017093;28;1134;-71
2022/10/05 09:42:36;;;;;;;;;;;22.70;68.40;;;;;;5006325;28;1289;-71
2022/10/05 09:45:23;;;;;;;;;;;22.70;68.50;;;;;;5014205;28;1868;-71
2022/10/05 09:48:08;;;;;;;;;;;22.70;68.60;;;;;;5017231;28;1480;-71
2022/10/05 09:50:36;;;;;;;;;;;22.70;68.70;;;;;;5009581;28;1995;-72
2022/10/05 09:53:20;;;;;;;;;;;22.70;68.80;;;;;;5017472;28;966;-71
2022/10/05 09:56:08;;;;;;;;;;;22.70;68.90;;;;;;5016289;28;1046;-71
2022/10/05 09:58:52;;;;;;;;;;;22.60;68.80;;;;;;5009009;28;1382;-71
2022/10/05 10:01:33;;;;;;;;;;;22.60;69.00;;;;;;5008930;28;1412;-71
2022/10/05 10:04:17;;;;;;;;;;;22.60;69.10;;;;;;5005947;28;1553;-72
2022/10/05 10:07:03;;;;;;;;;;;22.60;69.30;;;;;;5009926;28;1416;-72
2022/10/05 10:09:32;;;;;;;;;;;22.60;69.60;;;;;;5016711;28;943;-72
2022/10/05 10:12:12;;;;;;;;;;;22.60;69.70;;;;;;5015665;28;1973;-72
2022/10/05 10:14:57;;;;;;;;;;;22.60;69.70;;;;;;5012939;28;1257;-71
2022/10/05 10:17:31;;;;;;;;;;;22.60;69.80;;;;;;5007969;28;1305;-72
2022/10/05 10:20:12;;;;;;;;;;;22.50;69.80;;;;;;5010859;28;1392;-71
2022/10/05 10:22:49;;;;;;;;;;;22.50;69.80;;;;;;5014170;28;1231;-71
2022/10/05 10:25:33;;;;;;;;;;;22.50;69.70;;;;;;5020068;28;1415;-71
2022/10/05 10:28:02;;;;;;;;;;;22.50;69.80;;;;;;5013370;28;1252;-71
2022/10/05 10:30:27;;;;;;;;;;;22.50;69.90;;;;;;5004454;28;1894;-71
2022/10/05 10:33:12;;;;;;;;;;;22.50;70.00;;;;;;5013441;28;1390;-71
2022/10/05 10:35:40;;;;;;;;;;;22.50;70.20;;;;;;5005578;28;1461;-72
2022/10/05 10:38:27;;;;;;;;;;;22.50;70.60;;;;;;5010238;28;1694;-71
2022/10/05 10:41:01;;;;;;;;;;;22.50;70.60;;;;;;5020556;28;1897;-70
2022/10/05 10:43:38;;;;;;;;;;;22.40;70.80;;;;;;5021473;28;2009;-71
2022/10/05 10:46:04;;;;;;;;;;;22.50;71.20;;;;;;5022920;28;1284;-71
2022/10/05 10:48:29;;;;;;;;;;;22.40;71.30;;;;;;5023585;28;904;-70
2022/10/05 10:51:14;;;;;;;;;;;22.40;71.30;;;;;;5023963;28;1895;-70
2022/10/05 10:53:44;;;;;;;;;;;22.40;71.80;;;;;;5020297;28;1396;-70
2022/10/05 10:56:24;;;;;;;;;;;22.40;71.80;;;;;;5021936;28;1482;-70
2022/10/05 10:59:04;;;;;;;;;;;22.40;71.70;;;;;;5020431;28;1102;-68
2022/10/05 11:01:31;;;;;;;;;;;22.40;71.90;;;;;;5030554;28;1049;-71
2022/10/05 11:04:06;;;;;;;;;;;22.40;72.10;;;;;;5009936;28;1201;-72
2022/10/05 11:06:49;;;;;;;;;;;22.40;72.10;;;;;;5025769;28;1299;-72
2022/10/05 11:09:34;;;;;;;;;;;22.40;72.00;;;;;;5017183;28;1057;-71
2022/10/05 11:12:09;;;;;;;;;;;22.40;71.90;;;;;;5024499;28;1942;-71
2022/10/05 11:14:56;;;;;;;;;;;22.30;71.90;;;;;;5013928;28;5535;-70
2022/10/05 11:17:30;;;;;;;;;;;22.30;72.00;;;;;;5020439;28;1371;-71
2022/10/05 11:20:00;;;;;;;;;;;22.30;71.70;;;;;;5019699;28;2127;-70
2022/10/05 11:22:44;;;;;;;;;;;22.40;71.60;;;;;;5020918;28;1490;-70
2022/10/05 11:25:30;;;;;;;;;;;22.30;71.60;;;;;;5019091;28;948;-70
2022/10/05 11:28:07;;;;;;;;;;;22.30;71.60;;;;;;5022005;28;1397;-71
2022/10/05 11:30:52;;;;;;;;;;;22.30;71.60;;;;;;5020217;28;1895;-71
2022/10/05 11:33:36;;;;;;;;;;;22.30;71.50;;;;;;5019591;28;1374;-70
2022/10/05 11:36:08;;;;;;;;;;;22.30;71.50;;;;;;5020704;28;1357;-70
2022/10/05 11:38:47;;;;;;;;;;;22.30;71.50;;;;;;5020842;28;907;-70
2022/10/05 11:41:12;;;;;;;;;;;22.30;71.50;;;;;;5021465;28;1246;-70
2022/10/05 11:43:56;;;;;;;;;;;22.30;71.60;;;;;;5021374;28;1505;-70
2022/10/05 11:46:23;;;;;;;;;;;22.30;71.90;;;;;;5022831;28;1410;-70
2022/10/05 11:48:59;;;;;;;;;;;22.30;71.90;;;;;;5023982;28;1345;-70
2022/10/05 11:51:29;;;;;;;;;;;22.30;72.20;;;;;;5016735;28;1902;-71
2022/10/05 11:54:16;;;;;;;;;;;22.30;72.40;;;;;;5022398;28;944;-71
2022/10/05 11:57:14;;;;;;;;;;;22.30;72.50;;;;;;5018902;28;1244;-70
2022/10/05 11:59:42;;;;;;;;;;;22.30;72.60;;;;;;4980481;28;1141;-71
2022/10/05 12:02:16;;;;;;;;;;;22.20;72.60;;;;;;5022964;28;978;-69
2022/10/05 12:04:41;;;;;;;;;;;22.30;73.70;;;;;;5019318;28;1595;-70
2022/10/05 12:07:10;;;;;;;;;;;22.30;73.00;;;;;;5022453;28;1397;-69
2022/10/05 12:09:35;;;;;;;;;;;22.20;70.80;;;;;;5020466;28;1361;-69
2022/10/05 12:12:04;;;;;;;;;;;22.20;70.00;;;;;;5023378;28;1902;-70
2022/10/05 12:14:36;;;;;;;;;;;22.20;69.60;;;;;;5022954;28;1472;-70
2022/10/05 12:17:10;;;;;;;;;;;22.10;69.50;;;;;;5018878;28;1519;-69
2022/10/05 12:19:39;;;;;;;;;;;22.10;68.80;;;;;;5020864;28;1126;-68
2022/10/05 12:22:21;;;;;;;;;;;22.00;68.50;;;;;;5021754;28;892;-69
2022/10/05 12:25:00;;;;;;;;;;;22.00;68.40;;;;;;5017484;28;833;-71
2022/10/05 12:27:26;;;;;;;;;;;22.00;68.30;;;;;;5022047;28;1316;-69
2022/10/05 12:30:10;;;;;;;;;;;22.00;68.20;;;;;;5018209;28;900;-68
2022/10/05 12:32:48;;;;;;;;;;;22.00;68.10;;;;;;5019435;28;2394;-68
2022/10/05 12:35:13;;;;;;;;;;;21.90;68.00;;;;;;5017316;28;1117;-68
2022/10/05 12:37:45;;;;;;;;;;;21.90;68.00;;;;;;5017673;28;1348;-67
2022/10/05 12:40:22;;;;;;;;;;;21.80;68.00;;;;;;5016040;28;868;-68
2022/10/05 12:42:53;;;;;;;;;;;21.90;68.20;;;;;;5017201;28;880;-68
2022/10/05 12:45:22;;;;;;;;;;;21.90;68.20;;;;;;5015724;28;904;-68
2022/10/05 12:48:06;;;;;;;;;;;21.80;68.10;;;;;;5019682;28;1358;-68
2022/10/05 12:50:35;;;;;;;;;;;21.80;68.00;;;;;;5017828;28;1997;-68
2022/10/05 12:53:13;;;;;;;;;;;21.80;67.80;;;;;;5019528;28;878;-68
2022/10/05 12:55:39;;;;;;;;;;;21.80;67.80;;;;;;5019573;28;1952;-67
2022/10/05 12:58:27;;;;;;;;;;;21.80;67.80;;;;;;5023218;28;1391;-68
2022/10/05 13:01:05;;;;;;;;;;;21.80;67.80;;;;;;5008524;28;1448;-67
2022/10/05 13:03:51;;;;;;;;;;;21.80;67.80;;;;;;5018863;28;1436;-70
2022/10/05 13:06:32;;;;;;;;;;;21.80;67.80;;;;;;5021223;28;1283;-69
2022/10/05 13:09:00;;;;;;;;;;;21.70;67.80;;;;;;5019633;28;1333;-67
2022/10/05 13:11:27;;;;;;;;;;;21.70;67.90;;;;;;5019699;28;2004;-68
2022/10/05 13:14:02;;;;;;;;;;;21.70;67.70;;;;;;5022287;28;1453;-68
2022/10/05 13:16:36;;;;;;;;;;;21.70;67.70;;;;;;5023687;28;1445;-67
2022/10/05 13:19:05;;;;;;;;;;;21.70;67.50;;;;;;5018717;28;1368;-68
2022/10/05 13:21:50;;;;;;;;;;;21.70;67.00;;;;;;5022643;28;1942;-68
2022/10/05 13:24:25;;;;;;;;;;;21.70;67.00;;;;;;5023544;28;1413;-67
2022/10/05 13:26:58;;;;;;;;;;;21.70;66.90;;;;;;5021940;28;1256;-69
2022/10/05 13:29:28;;;;;;;;;;;21.60;66.60;;;;;;5024696;28;1405;-69
2022/10/05 13:31:54;;;;;;;;;;;21.60;66.60;;;;;;5026945;28;1965;-69
2022/10/05 13:34:36;;;;;;;;;;;21.60;66.60;;;;;;5023906;28;1370;-67
2022/10/05 13:37:01;;;;;;;;;;;21.60;66.50;;;;;;5021168;28;1291;-67
2022/10/05 13:39:46;;;;;;;;;;;21.60;66.30;;;;;;5023212;28;971;-67
2022/10/05 13:42:12;;;;;;;;;;;21.60;66.50;;;;;;5019917;28;939;-67
2022/10/05 13:44:41;;;;;;;;;;;21.60;66.50;;;;;;5021119;28;1351;-67
2022/10/05 13:47:07;;;;;;;;;;;21.60;66.40;;;;;;5023478;28;1229;-68
2022/10/05 13:49:37;;;;;;;;;;;21.60;66.30;;;;;;5020928;28;2122;-69
2022/10/05 13:52:19;;;;;;;;;;;21.60;65.80;;;;;;5021841;28;1957;-69
2022/10/05 13:54:46;;;;;;;;;;;21.50;65.60;;;;;;5020205;28;868;-69
2022/10/05 13:57:18;;;;;;;;;;;21.50;65.70;;;;;;5018691;28;1377;-69
2022/10/05 13:59:46;;;;;;;;;;;21.50;66.00;;;;;;5022368;28;1275;-69
2022/10/05 14:02:14;;;;;;;;;;;21.50;66.20;;;;;;5017813;28;998;-68
2022/10/05 14:04:44;;;;;;;;;;;21.50;66.30;;;;;;5021987;28;812;-69
2022/10/05 14:07:30;;;;;;;;;;;21.50;66.40;;;;;;5014244;28;1653;-68
2022/10/05 14:09:55;;;;;;;;;;;21.50;67.30;;;;;;5022972;28;1140;-69
2022/10/05 14:12:21;;;;;;;;;;;21.50;66.70;;;;;;5024121;28;1900;-68
2022/10/05 14:14:47;;;;;;;;;;;21.50;66.80;;;;;;5023927;28;885;-69
2022/10/05 14:17:13;;;;;;;;;;;21.50;66.90;;;;;;5022849;28;1371;-68
2022/10/05 14:19:46;;;;;;;;;;;21.50;67.00;;;;;;5022318;28;1124;-68
2022/10/05 14:22:13;;;;;;;;;;;21.50;67.10;;;;;;5021592;28;860;-68
2022/10/05 14:24:46;;;;;;;;;;;21.50;67.20;;;;;;5022021;28;928;-68
2022/10/05 14:27:18;;;;;;;;;;;21.40;67.30;;;;;;5020000;28;1246;-68
2022/10/05 14:29:44;;;;;;;;;;;21.50;67.40;;;;;;5026587;28;884;-68
2022/10/05 14:32:13;;;;;;;;;;;21.40;67.40;;;;;;5022358;28;1910;-68
2022/10/05 14:34:42;;;;;;;;;;;21.40;67.50;;;;;;5024784;28;1169;-68
2022/10/05 14:37:21;;;;;;;;;;;21.40;67.50;;;;;;5022177;28;1346;-68
2022/10/05 14:39:47;;;;;;;;;;;21.40;67.70;;;;;;5020535;28;1214;-68
2022/10/05 14:42:22;;;;;;;;;;;21.40;67.70;;;;;;5023273;28;820;-68
2022/10/05 14:45:28;;;;;;;;;;;21.40;67.80;;;;;;5021778;28;852;-68
2022/10/05 14:48:01;;;;;;;;;;;21.40;67.80;;;;;;4968985;28;1277;-68
2022/10/05 14:50:30;;;;;;;;;;;21.40;67.90;;;;;;4955218;28;1899;-68
2022/10/05 14:53:02;;;;;;;;;;;21.40;68.00;;;;;;4998770;28;995;-68
2022/10/05 14:55:29;;;;;;;;;;;21.40;68.00;;;;;;5023718;28;853;-68
2022/10/05 14:58:13;;;;;;;;;;;21.40;68.10;;;;;;5020310;28;1264;-68
2022/10/05 15:00:51;;;;;;;;;;;21.40;68.10;;;;;;5020235;28;962;-67
2022/10/05 15:03:38;;;;;;;;;;;21.40;68.20;;;;;;5018722;28;2094;-68
2022/10/05 15:06:03;;;;;;;;;;;21.40;68.20;;;;;;5027482;28;2281;-68
2022/10/05 15:08:40;;;;;;;;;;;21.40;68.20;;;;;;5021629;28;1449;-68
2022/10/05 15:11:06;;;;;;;;;;;21.40;68.30;;;;;;5021715;28;1959;-68
2022/10/05 15:13:33;;;;;;;;;;;21.40;68.30;;;;;;5019902;28;853;-68
2022/10/05 15:16:03;;;;;;;;;;;21.40;68.50;;;;;;5019937;28;1324;-68